Owensville, Indiana
Current Conditions -  °F | °C
As of 10:54 PM on Friday 28 Nov 2014 (Local Time) from KEVV Reporting Station
Clear Clear  
Wind Chill: 33°   Ceiling: Unl
Heat Index: 38°   Visibility: 10mi
Dew Point: 26°   Wind: 7mph
Humidity: 62%   Direction: 180°S
Pressure: 30.03"   Gusts: NA
Location:  38.27°N, 87.69°W
Report Text: KEVV 290454Z AUTO 18006KT 10SM CLR 03/M03 A3003 RMK AO2 SLP173 T00331033
Loading
Personal Weather Stations






























Interactive Weather Map New forecast layout! Learn more

10-Day Weather Forecast

Advertisements
Track Severe Weather on mobile